sensor_id;sensor_type;location;lat;lon;timestamp;pressure;altitude;pressure_sealevel;temperature;humidity
58018;BME280;43810;50.860;19.226;2023-04-08T00:00:17;98896.78;;;2.32;93.09
58018;BME280;43810;50.860;19.226;2023-04-08T00:03:04;98889.72;;;2.33;92.86
58018;BME280;43810;50.860;19.226;2023-04-08T00:05:31;98889.44;;;2.34;92.09
58018;BME280;43810;50.860;19.226;2023-04-08T00:07:57;98895.75;;;2.38;91.93
58018;BME280;43810;50.860;19.226;2023-04-08T00:10:24;98894.94;;;2.38;91.64
58018;BME280;43810;50.860;19.226;2023-04-08T00:12:51;98893.38;;;2.37;91.73
58018;BME280;43810;50.860;19.226;2023-04-08T00:15:18;98882.84;;;2.42;92.32
58018;BME280;43810;50.860;19.226;2023-04-08T00:17:43;98898.56;;;2.57;91.51
58018;BME280;43810;50.860;19.226;2023-04-08T00:20:11;98893.34;;;2.47;91.29
58018;BME280;43810;50.860;19.226;2023-04-08T00:22:36;98897.28;;;2.39;92.02
58018;BME280;43810;50.860;19.226;2023-04-08T00:25:03;98890.22;;;2.35;91.95
58018;BME280;43810;50.860;19.226;2023-04-08T00:27:34;98891.00;;;2.40;92.18
58018;BME280;43810;50.860;19.226;2023-04-08T00:30:00;98890.50;;;2.38;92.20
58018;BME280;43810;50.860;19.226;2023-04-08T00:32:26;98899.38;;;2.42;92.35
58018;BME280;43810;50.860;19.226;2023-04-08T00:34:54;98905.44;;;2.38;92.64
58018;BME280;43810;50.860;19.226;2023-04-08T00:37:20;98906.50;;;2.37;92.55
58018;BME280;43810;50.860;19.226;2023-04-08T00:39:47;98910.66;;;2.48;92.35
58018;BME280;43810;50.860;19.226;2023-04-08T00:42:13;98902.78;;;2.43;92.12
58018;BME280;43810;50.860;19.226;2023-04-08T00:44:39;98911.66;;;2.52;92.12
58018;BME280;43810;50.860;19.226;2023-04-08T00:47:05;98909.88;;;2.48;92.28
58018;BME280;43810;50.860;19.226;2023-04-08T00:49:31;98912.75;;;2.46;92.33
58018;BME280;43810;50.860;19.226;2023-04-08T00:51:58;98909.09;;;2.47;92.09
58018;BME280;43810;50.860;19.226;2023-04-08T00:54:24;98915.13;;;2.48;92.29
58018;BME280;43810;50.860;19.226;2023-04-08T00:56:50;98916.94;;;2.47;92.43
58018;BME280;43810;50.860;19.226;2023-04-08T00:59:16;98924.56;;;2.38;92.23
58018;BME280;43810;50.860;19.226;2023-04-08T01:01:50;98924.56;;;2.49;92.42
58018;BME280;43810;50.860;19.226;2023-04-08T01:07:17;98922.22;;;2.37;92.44
58018;BME280;43810;50.860;19.226;2023-04-08T01:09:47;98922.75;;;2.29;92.24
58018;BME280;43810;50.860;19.226;2023-04-08T01:12:24;98920.94;;;2.24;92.52
58018;BME280;43810;50.860;19.226;2023-04-08T01:15:04;98923.53;;;2.19;92.79
58018;BME280;43810;50.860;19.226;2023-04-08T01:17:31;98928.03;;;2.08;92.87
58018;BME280;43810;50.860;19.226;2023-04-08T01:20:00;98932.75;;;2.12;93.33
58018;BME280;43810;50.860;19.226;2023-04-08T01:25:05;98924.34;;;2.15;93.11
58018;BME280;43810;50.860;19.226;2023-04-08T01:27:32;98924.06;;;2.16;93.18
58018;BME280;43810;50.860;19.226;2023-04-08T01:30:02;98927.75;;;2.15;93.25
58018;BME280;43810;50.860;19.226;2023-04-08T01:32:30;98918.03;;;2.16;93.12
58018;BME280;43810;50.860;19.226;2023-04-08T01:34:58;98925.63;;;2.17;93.39
58018;BME280;43810;50.860;19.226;2023-04-08T01:37:25;98925.13;;;2.20;93.09
58018;BME280;43810;50.860;19.226;2023-04-08T01:39:54;98917.28;;;2.15;92.60
58018;BME280;43810;50.860;19.226;2023-04-08T01:42:26;98924.88;;;2.06;93.23
58018;BME280;43810;50.860;19.226;2023-04-08T01:44:56;98924.09;;;2.11;93.30
58018;BME280;43810;50.860;19.226;2023-04-08T01:47:23;98927.47;;;2.22;92.91
58018;BME280;43810;50.860;19.226;2023-04-08T01:49:51;98922.75;;;2.24;92.51
58018;BME280;43810;50.860;19.226;2023-04-08T01:52:19;98924.59;;;2.18;91.71
58018;BME280;43810;50.860;19.226;2023-04-08T01:54:46;98932.19;;;2.25;91.89
58018;BME280;43810;50.860;19.226;2023-04-08T01:57:16;98930.09;;;2.17;92.04
58018;BME280;43810;50.860;19.226;2023-04-08T01:59:44;98928.53;;;2.21;91.87
58018;BME280;43810;50.860;19.226;2023-04-08T02:02:14;98935.88;;;2.14;92.26
58018;BME280;43810;50.860;19.226;2023-04-08T02:04:42;98934.56;;;2.11;92.08
58018;BME280;43810;50.860;19.226;2023-04-08T02:07:08;98934.03;;;2.04;92.10
58018;BME280;43810;50.860;19.226;2023-04-08T02:09:34;98939.03;;;2.05;92.86
58018;BME280;43810;50.860;19.226;2023-04-08T02:12:00;98929.59;;;2.09;92.61
58018;BME280;43810;50.860;19.226;2023-04-08T02:14:27;98939.03;;;2.05;92.96
58018;BME280;43810;50.860;19.226;2023-04-08T02:17:04;98938.50;;;2.08;93.01
58018;BME280;43810;50.860;19.226;2023-04-08T02:25:28;98946.38;;;2.03;92.68
58018;BME280;43810;50.860;19.226;2023-04-08T02:27:55;98947.16;;;2.04;92.77
58018;BME280;43810;50.860;19.226;2023-04-08T02:30:24;98941.16;;;2.03;92.70
58018;BME280;43810;50.860;19.226;2023-04-08T02:32:53;98956.59;;;2.15;92.93
58018;BME280;43810;50.860;19.226;2023-04-08T02:35:19;98952.63;;;2.18;92.63
58018;BME280;43810;50.860;19.226;2023-04-08T02:37:45;98944.25;;;2.21;92.38
58018;BME280;43810;50.860;19.226;2023-04-08T02:42:50;98944.25;;;2.05;92.60
58018;BME280;43810;50.860;19.226;2023-04-08T02:45:17;98946.66;;;2.02;92.72
58018;BME280;43810;50.860;19.226;2023-04-08T02:47:43;98945.31;;;2.09;92.81
58018;BME280;43810;50.860;19.226;2023-04-08T02:50:09;98958.16;;;2.21;92.53
58018;BME280;43810;50.860;19.226;2023-04-08T02:52:35;98961.84;;;2.15;92.40
58018;BME280;43810;50.860;19.226;2023-04-08T02:55:01;98957.91;;;2.13;92.45
58018;BME280;43810;50.860;19.226;2023-04-08T02:57:27;98962.09;;;2.14;92.60
58018;BME280;43810;50.860;19.226;2023-04-08T02:59:53;98961.84;;;2.15;92.59
58018;BME280;43810;50.860;19.226;2023-04-08T03:02:18;98959.97;;;2.16;92.30
58018;BME280;43810;50.860;19.226;2023-04-08T03:04:44;98962.88;;;2.14;92.77
58018;BME280;43810;50.860;19.226;2023-04-08T03:07:10;98964.47;;;2.15;92.62
58018;BME280;43810;50.860;19.226;2023-04-08T03:09:36;98964.47;;;2.15;92.63
58018;BME280;43810;50.860;19.226;2023-04-08T03:12:02;98970.22;;;2.07;92.57
58018;BME280;43810;50.860;19.226;2023-04-08T03:14:28;98973.34;;;2.09;92.52
58018;BME280;43810;50.860;19.226;2023-04-08T03:16:53;98963.16;;;2.13;92.31
58018;BME280;43810;50.860;19.226;2023-04-08T03:19:20;98962.34;;;2.07;92.27
58018;BME280;43810;50.860;19.226;2023-04-08T03:21:45;98962.63;;;2.11;92.06
58018;BME280;43810;50.860;19.226;2023-04-08T03:24:11;98964.44;;;2.05;92.39
58018;BME280;43810;50.860;19.226;2023-04-08T03:26:37;98964.97;;;2.07;92.68
58018;BME280;43810;50.860;19.226;2023-04-08T03:29:03;98968.66;;;2.11;92.59
58018;BME280;43810;50.860;19.226;2023-04-08T03:31:28;98967.84;;;2.16;92.50
58018;BME280;43810;50.860;19.226;2023-04-08T03:33:54;98964.97;;;2.22;92.62
58018;BME280;43810;50.860;19.226;2023-04-08T03:36:20;98971.53;;;2.20;92.20
58018;BME280;43810;50.860;19.226;2023-04-08T03:38:46;98973.09;;;2.26;92.20
58018;BME280;43810;50.860;19.226;2023-04-08T03:41:12;98972.06;;;2.27;92.18
58018;BME280;43810;50.860;19.226;2023-04-08T03:43:38;98971.53;;;2.25;92.68
58018;BME280;43810;50.860;19.226;2023-04-08T03:46:03;98974.16;;;2.25;92.02
58018;BME280;43810;50.860;19.226;2023-04-08T03:48:29;98983.06;;;2.24;92.36
58018;BME280;43810;50.860;19.226;2023-04-08T03:50:55;98978.34;;;2.21;92.34
58018;BME280;43810;50.860;19.226;2023-04-08T03:53:21;98976.25;;;2.23;92.57
58018;BME280;43810;50.860;19.226;2023-04-08T03:55:48;98979.91;;;2.22;92.59
58018;BME280;43810;50.860;19.226;2023-04-08T03:58:15;98991.44;;;2.31;92.88
58018;BME280;43810;50.860;19.226;2023-04-08T04:00:41;98979.38;;;2.35;92.44
58018;BME280;43810;50.860;19.226;2023-04-08T04:03:07;98981.72;;;2.41;92.33
58018;BME280;43810;50.860;19.226;2023-04-08T04:05:35;98986.44;;;2.50;91.61
58018;BME280;43810;50.860;19.226;2023-04-08T04:08:01;98987.25;;;2.35;91.78
58018;BME280;43810;50.860;19.226;2023-04-08T04:10:27;98991.69;;;2.34;91.70
58018;BME280;43810;50.860;19.226;2023-04-08T04:12:53;98989.34;;;2.38;91.42
58018;BME280;43810;50.860;19.226;2023-04-08T04:15:18;98995.88;;;2.40;91.27
58018;BME280;43810;50.860;19.226;2023-04-08T04:17:47;99000.88;;;2.32;90.82
58018;BME280;43810;50.860;19.226;2023-04-08T04:20:12;98998.50;;;2.30;91.35
58018;BME280;43810;50.860;19.226;2023-04-08T04:22:38;98998.25;;;2.22;91.48
58018;BME280;43810;50.860;19.226;2023-04-08T04:25:04;99004.81;;;2.19;91.39
58018;BME280;43810;50.860;19.226;2023-04-08T04:27:31;99007.69;;;2.13;91.56
58018;BME280;43810;50.860;19.226;2023-04-08T04:29:56;99013.19;;;2.11;91.92
58018;BME280;43810;50.860;19.226;2023-04-08T04:32:22;99019.75;;;2.14;91.40
58018;BME280;43810;50.860;19.226;2023-04-08T04:34:48;99020.25;;;2.16;91.37
58018;BME280;43810;50.860;19.226;2023-04-08T04:37:14;99027.59;;;2.08;91.39
58018;BME280;43810;50.860;19.226;2023-04-08T04:39:40;99031.81;;;2.09;91.36
58018;BME280;43810;50.860;19.226;2023-04-08T04:42:05;99030.00;;;2.15;91.34
58018;BME280;43810;50.860;19.226;2023-04-08T04:44:31;99036.00;;;2.21;91.36
58018;BME280;43810;50.860;19.226;2023-04-08T04:46:57;99039.69;;;2.35;91.40
58018;BME280;43810;50.860;19.226;2023-04-08T04:49:23;99047.28;;;2.47;90.52
58018;BME280;43810;50.860;19.226;2023-04-08T04:51:49;99040.72;;;2.44;89.81
58018;BME280;43810;50.860;19.226;2023-04-08T04:54:14;99051.22;;;2.44;89.79
58018;BME280;43810;50.860;19.226;2023-04-08T04:56:40;99044.66;;;2.47;90.00
58018;BME280;43810;50.860;19.226;2023-04-08T04:59:06;99043.34;;;2.49;89.97
58018;BME280;43810;50.860;19.226;2023-04-08T05:01:33;99046.50;;;2.46;89.82
58018;BME280;43810;50.860;19.226;2023-04-08T05:03:59;99050.41;;;2.43;89.67
58018;BME280;43810;50.860;19.226;2023-04-08T05:06:25;99050.69;;;2.47;89.89
58018;BME280;43810;50.860;19.226;2023-04-08T05:08:52;99057.25;;;2.50;89.44
58018;BME280;43810;50.860;19.226;2023-04-08T05:11:18;99059.84;;;2.39;89.42
58018;BME280;43810;50.860;19.226;2023-04-08T05:13:46;99066.16;;;2.43;89.68
58018;BME280;43810;50.860;19.226;2023-04-08T05:16:12;99063.56;;;2.38;89.81
58018;BME280;43810;50.860;19.226;2023-04-08T05:18:38;99068.50;;;2.40;89.98
58018;BME280;43810;50.860;19.226;2023-04-08T05:21:04;99072.47;;;2.48;90.04
58018;BME280;43810;50.860;19.226;2023-04-08T05:23:30;99075.34;;;2.56;89.58
58018;BME280;43810;50.860;19.226;2023-04-08T05:25:55;99076.63;;;2.54;88.85
58018;BME280;43810;50.860;19.226;2023-04-08T05:28:21;99083.47;;;2.60;89.00
58018;BME280;43810;50.860;19.226;2023-04-08T05:30:51;99076.91;;;2.57;88.98
58018;BME280;43810;50.860;19.226;2023-04-08T05:33:17;99073.75;;;2.50;89.03
58018;BME280;43810;50.860;19.226;2023-04-08T05:35:44;99078.47;;;2.58;89.25
58018;BME280;43810;50.860;19.226;2023-04-08T05:38:10;99074.28;;;2.57;89.50
58018;BME280;43810;50.860;19.226;2023-04-08T05:40:36;99078.47;;;2.68;89.09
58018;BME280;43810;50.860;19.226;2023-04-08T05:43:01;99092.88;;;2.86;88.34
58018;BME280;43810;50.860;19.226;2023-04-08T05:45:28;99089.22;;;2.82;88.04
58018;BME280;43810;50.860;19.226;2023-04-08T05:47:54;99097.88;;;2.83;88.50
58018;BME280;43810;50.860;19.226;2023-04-08T05:50:21;99092.38;;;2.84;88.68
58018;BME280;43810;50.860;19.226;2023-04-08T05:52:46;99092.59;;;2.98;88.38
58018;BME280;43810;50.860;19.226;2023-04-08T05:55:13;99095.97;;;3.08;87.83
58018;BME280;43810;50.860;19.226;2023-04-08T05:57:39;99098.59;;;3.18;87.45
58018;BME280;43810;50.860;19.226;2023-04-08T06:00:07;99103.31;;;3.11;87.73
58018;BME280;43810;50.860;19.226;2023-04-08T06:02:34;99105.13;;;3.26;87.58
58018;BME280;43810;50.860;19.226;2023-04-08T06:05:01;99102.69;;;3.45;87.24
58018;BME280;43810;50.860;19.226;2023-04-08T06:07:26;99111.66;;;3.39;86.32
58018;BME280;43810;50.860;19.226;2023-04-08T06:09:52;99104.53;;;3.44;86.36
58018;BME280;43810;50.860;19.226;2023-04-08T06:12:18;99109.75;;;3.54;86.54
58018;BME280;43810;50.860;19.226;2023-04-08T06:14:44;99113.91;;;3.66;86.09
58018;BME280;43810;50.860;19.226;2023-04-08T06:17:09;99115.53;;;3.57;85.78
58018;BME280;43810;50.860;19.226;2023-04-08T06:19:35;99123.66;;;3.65;86.53
58018;BME280;43810;50.860;19.226;2023-04-08T06:22:01;99133.34;;;3.70;86.20
58018;BME280;43810;50.860;19.226;2023-04-08T06:24:27;99122.78;;;3.85;85.77
58018;BME280;43810;50.860;19.226;2023-04-08T06:26:54;99127.38;;;4.08;85.69
58018;BME280;43810;50.860;19.226;2023-04-08T06:29:22;99129.16;;;4.18;84.51
58018;BME280;43810;50.860;19.226;2023-04-08T06:31:48;99136.28;;;4.12;85.08
58018;BME280;43810;50.860;19.226;2023-04-08T06:34:15;99132.84;;;4.17;84.72
58018;BME280;43810;50.860;19.226;2023-04-08T06:36:41;99138.63;;;4.19;84.57
58018;BME280;43810;50.860;19.226;2023-04-08T06:39:07;99145.13;;;4.32;84.91
58018;BME280;43810;50.860;19.226;2023-04-08T06:41:32;99142.31;;;4.13;84.39
58018;BME280;43810;50.860;19.226;2023-04-08T06:43:58;99145.28;;;4.06;85.36
58018;BME280;43810;50.860;19.226;2023-04-08T06:46:24;99153.72;;;3.98;85.49
58018;BME280;43810;50.860;19.226;2023-04-08T06:48:50;99162.69;;;3.97;85.95
58018;BME280;43810;50.860;19.226;2023-04-08T06:51:16;99150.00;;;4.09;86.38
58018;BME280;43810;50.860;19.226;2023-04-08T06:53:41;99149.72;;;4.11;85.83
58018;BME280;43810;50.860;19.226;2023-04-08T06:56:07;99153.63;;;4.13;85.40
58018;BME280;43810;50.860;19.226;2023-04-08T06:58:33;99152.97;;;4.37;85.28
58018;BME280;43810;50.860;19.226;2023-04-08T07:00:59;99152.72;;;4.72;84.21
58018;BME280;43810;50.860;19.226;2023-04-08T07:03:26;99151.00;;;4.91;83.35
58018;BME280;43810;50.860;19.226;2023-04-08T07:05:52;99157.16;;;5.06;82.74
58018;BME280;43810;50.860;19.226;2023-04-08T07:08:18;99156.88;;;5.12;81.92
58018;BME280;43810;50.860;19.226;2023-04-08T07:10:44;99159.72;;;5.16;80.76
58018;BME280;43810;50.860;19.226;2023-04-08T07:13:11;99162.34;;;5.16;81.92
58018;BME280;43810;50.860;19.226;2023-04-08T07:15:36;99162.19;;;5.31;80.78
58018;BME280;43810;50.860;19.226;2023-04-08T07:18:03;99167.16;;;5.09;81.67
58018;BME280;43810;50.860;19.226;2023-04-08T07:20:29;99163.47;;;5.10;80.39
58018;BME280;43810;50.860;19.226;2023-04-08T07:22:55;99170.31;;;5.11;80.84
58018;BME280;43810;50.860;19.226;2023-04-08T07:25:21;99174.00;;;5.10;81.67
58018;BME280;43810;50.860;19.226;2023-04-08T07:27:47;99174.00;;;5.10;81.46
58018;BME280;43810;50.860;19.226;2023-04-08T07:30:16;99173.38;;;5.18;81.03
58018;BME280;43810;50.860;19.226;2023-04-08T07:32:42;99176.09;;;5.13;80.77
58018;BME280;43810;50.860;19.226;2023-04-08T07:35:07;99177.84;;;5.22;81.13
58018;BME280;43810;50.860;19.226;2023-04-08T07:37:33;99189.59;;;5.30;80.69
58018;BME280;43810;50.860;19.226;2023-04-08T07:40:00;99188.16;;;5.43;80.00
58018;BME280;43810;50.860;19.226;2023-04-08T07:42:26;99184.56;;;5.33;79.43
58018;BME280;43810;50.860;19.226;2023-04-08T07:44:52;99183.69;;;5.43;78.63
58018;BME280;43810;50.860;19.226;2023-04-08T07:47:18;99184.34;;;5.30;79.12
58018;BME280;43810;50.860;19.226;2023-04-08T07:49:47;99192.31;;;5.25;78.47
58018;BME280;43810;50.860;19.226;2023-04-08T07:52:15;99193.53;;;5.32;79.90
58018;BME280;43810;50.860;19.226;2023-04-08T07:54:41;99188.00;;;5.34;77.85
58018;BME280;43810;50.860;19.226;2023-04-08T07:57:08;99194.66;;;5.50;77.91
58018;BME280;43810;50.860;19.226;2023-04-08T07:59:34;99201.63;;;5.65;77.70
58018;BME280;43810;50.860;19.226;2023-04-08T08:02:01;99204.56;;;5.63;76.70
58018;BME280;43810;50.860;19.226;2023-04-08T08:04:27;99208.66;;;5.74;75.78
58018;BME280;43810;50.860;19.226;2023-04-08T08:06:53;99205.41;;;5.59;77.11
58018;BME280;43810;50.860;19.226;2023-04-08T08:09:19;99199.88;;;5.60;76.75
58018;BME280;43810;50.860;19.226;2023-04-08T08:11:45;99205.13;;;5.60;76.02
58018;BME280;43810;50.860;19.226;2023-04-08T08:14:11;99206.41;;;5.63;76.63
58018;BME280;43810;50.860;19.226;2023-04-08T08:16:38;99204.06;;;5.61;76.48
58018;BME280;43810;50.860;19.226;2023-04-08T08:19:04;99209.03;;;5.87;78.19
58018;BME280;43810;50.860;19.226;2023-04-08T08:21:32;99209.03;;;6.10;76.95
58018;BME280;43810;50.860;19.226;2023-04-08T08:23:58;99209.34;;;6.28;75.50
58018;BME280;43810;50.860;19.226;2023-04-08T08:26:24;99208.97;;;6.34;75.39
58018;BME280;43810;50.860;19.226;2023-04-08T08:28:50;99207.56;;;6.42;74.05
58018;BME280;43810;50.860;19.226;2023-04-08T08:31:17;99211.19;;;6.46;74.58
58018;BME280;43810;50.860;19.226;2023-04-08T08:33:43;99204.28;;;6.50;74.50
58018;BME280;43810;50.860;19.226;2023-04-08T08:36:09;99217.13;;;6.75;73.64
58018;BME280;43810;50.860;19.226;2023-04-08T08:38:40;99220.13;;;6.69;72.76
58018;BME280;43810;50.860;19.226;2023-04-08T08:41:07;99214.69;;;6.79;73.59
58018;BME280;43810;50.860;19.226;2023-04-08T08:43:33;99222.97;;;6.91;72.92
58018;BME280;43810;50.860;19.226;2023-04-08T08:46:00;99223.25;;;6.90;73.20
58018;BME280;43810;50.860;19.226;2023-04-08T08:48:26;99227.47;;;6.91;73.49
58018;BME280;43810;50.860;19.226;2023-04-08T08:50:54;99218.59;;;7.00;73.10
58018;BME280;43810;50.860;19.226;2023-04-08T08:53:21;99222.97;;;7.10;72.54
58018;BME280;43810;50.860;19.226;2023-04-08T08:55:51;99213.13;;;7.29;70.14
58018;BME280;43810;50.860;19.226;2023-04-08T08:58:17;99224.97;;;7.32;70.06
58018;BME280;43810;50.860;19.226;2023-04-08T09:00:43;99217.34;;;7.30;70.05
58018;BME280;43810;50.860;19.226;2023-04-08T09:05:52;99228.97;;;8.03;70.89
58018;BME280;43810;50.860;19.226;2023-04-08T09:11:09;99227.09;;;8.03;68.11
58018;BME280;43810;50.860;19.226;2023-04-08T09:13:36;99243.72;;;8.31;69.78
58018;BME280;43810;50.860;19.226;2023-04-08T09:16:04;99239.00;;;9.00;67.70
58018;BME280;43810;50.860;19.226;2023-04-08T09:18:31;99238.06;;;9.41;64.44
58018;BME280;43810;50.860;19.226;2023-04-08T09:20:59;99244.78;;;9.02;63.86
58018;BME280;43810;50.860;19.226;2023-04-08T09:23:37;99234.56;;;9.31;63.88
58018;BME280;43810;50.860;19.226;2023-04-08T09:28:34;99242.25;;;9.64;64.01
58018;BME280;43810;50.860;19.226;2023-04-08T09:31:00;99247.41;;;9.38;64.71
58018;BME280;43810;50.860;19.226;2023-04-08T09:33:30;99253.78;;;8.92;65.65
58018;BME280;43810;50.860;19.226;2023-04-08T09:35:56;99246.09;;;8.69;67.01
58018;BME280;43810;50.860;19.226;2023-04-08T09:38:22;99248.03;;;8.99;66.81
58018;BME280;43810;50.860;19.226;2023-04-08T09:40:49;99245.16;;;9.31;63.00
58018;BME280;43810;50.860;19.226;2023-04-08T09:43:17;99252.19;;;9.58;65.01
58018;BME280;43810;50.860;19.226;2023-04-08T09:45:45;99248.00;;;10.05;63.67
58018;BME280;43810;50.860;19.226;2023-04-08T09:48:16;99250.00;;;10.00;61.40
58018;BME280;43810;50.860;19.226;2023-04-08T09:50:48;99254.47;;;9.82;65.61
58018;BME280;43810;50.860;19.226;2023-04-08T09:53:33;99250.34;;;9.98;63.43
58018;BME280;43810;50.860;19.226;2023-04-08T09:56:01;99254.91;;;10.24;63.42
58018;BME280;43810;50.860;19.226;2023-04-08T09:58:38;99260.00;;;10.60;61.18
58018;BME280;43810;50.860;19.226;2023-04-08T10:01:05;99262.97;;;10.67;60.07
58018;BME280;43810;50.860;19.226;2023-04-08T10:03:48;99257.66;;;10.67;60.60
58018;BME280;43810;50.860;19.226;2023-04-08T10:06:16;99265.00;;;10.53;61.45
58018;BME280;43810;50.860;19.226;2023-04-08T10:08:43;99252.59;;;10.22;59.80
58018;BME280;43810;50.860;19.226;2023-04-08T10:11:10;99254.09;;;10.06;62.70
58018;BME280;43810;50.860;19.226;2023-04-08T10:13:36;99252.13;;;10.29;61.61
58018;BME280;43810;50.860;19.226;2023-04-08T10:16:22;99254.06;;;10.63;62.26
58018;BME280;43810;50.860;19.226;2023-04-08T10:18:49;99253.28;;;10.88;60.44
58018;BME280;43810;50.860;19.226;2023-04-08T10:21:34;99256.84;;;10.49;60.79
58018;BME280;43810;50.860;19.226;2023-04-08T10:24:00;99249.22;;;10.65;61.22
58018;BME280;43810;50.860;19.226;2023-04-08T10:26:35;99246.84;;;10.46;60.16
58018;BME280;43810;50.860;19.226;2023-04-08T10:31:42;99249.97;;;10.39;59.41
58018;BME280;43810;50.860;19.226;2023-04-08T10:34:15;99251.09;;;10.64;60.36
58018;BME280;43810;50.860;19.226;2023-04-08T10:36:43;99247.91;;;10.28;59.54
58018;BME280;43810;50.860;19.226;2023-04-08T10:39:18;99242.91;;;10.35;58.84
58018;BME280;43810;50.860;19.226;2023-04-08T10:41:48;99241.31;;;10.08;59.49
58018;BME280;43810;50.860;19.226;2023-04-08T10:44:19;99240.84;;;10.23;61.05
58018;BME280;43810;50.860;19.226;2023-04-08T10:46:47;99237.03;;;10.64;61.28
58018;BME280;43810;50.860;19.226;2023-04-08T10:49:14;99241.59;;;10.80;60.18
58018;BME280;43810;50.860;19.226;2023-04-08T10:51:41;99234.34;;;11.15;59.63
58018;BME280;43810;50.860;19.226;2023-04-08T10:54:10;99244.22;;;11.24;58.45
58018;BME280;43810;50.860;19.226;2023-04-08T10:56:51;99244.66;;;11.34;59.71
58018;BME280;43810;50.860;19.226;2023-04-08T10:59:29;99236.66;;;11.43;58.47
58018;BME280;43810;50.860;19.226;2023-04-08T11:01:56;99249.38;;;11.03;58.06
58018;BME280;43810;50.860;19.226;2023-04-08T11:04:23;99233.72;;;11.10;58.92
58018;BME280;43810;50.860;19.226;2023-04-08T11:06:52;99232.63;;;11.28;58.60
58018;BME280;43810;50.860;19.226;2023-04-08T11:09:18;99235.13;;;11.33;58.77
58018;BME280;43810;50.860;19.226;2023-04-08T11:11:45;99250.00;;;11.34;59.50
58018;BME280;43810;50.860;19.226;2023-04-08T11:14:11;99248.28;;;11.30;60.57
58018;BME280;43810;50.860;19.226;2023-04-08T11:16:38;99256.72;;;11.14;59.95
58018;BME280;43810;50.860;19.226;2023-04-08T11:19:04;99255.78;;;10.59;61.01
58018;BME280;43810;50.860;19.226;2023-04-08T11:21:35;99255.56;;;10.21;62.24
58018;BME280;43810;50.860;19.226;2023-04-08T11:24:05;99256.75;;;10.06;63.25
58018;BME280;43810;50.860;19.226;2023-04-08T11:26:32;99242.25;;;10.12;62.82
58018;BME280;43810;50.860;19.226;2023-04-08T11:28:58;99241.25;;;10.73;61.01
58018;BME280;43810;50.860;19.226;2023-04-08T11:31:26;99250.00;;;10.82;62.15
58018;BME280;43810;50.860;19.226;2023-04-08T11:33:53;99238.56;;;11.08;61.60
58018;BME280;43810;50.860;19.226;2023-04-08T11:36:22;99249.69;;;11.19;61.73
58018;BME280;43810;50.860;19.226;2023-04-08T11:38:48;99264.53;;;10.94;61.89
58018;BME280;43810;50.860;19.226;2023-04-08T11:41:14;99243.09;;;11.07;62.30
58018;BME280;43810;50.860;19.226;2023-04-08T11:43:51;99248.44;;;10.81;61.17
58018;BME280;43810;50.860;19.226;2023-04-08T11:46:18;99256.53;;;10.42;62.31
58018;BME280;43810;50.860;19.226;2023-04-08T11:49:05;99246.41;;;10.53;63.28
58018;BME280;43810;50.860;19.226;2023-04-08T11:51:32;99251.53;;;10.40;63.05
58018;BME280;43810;50.860;19.226;2023-04-08T11:54:02;99255.75;;;10.41;63.21
58018;BME280;43810;50.860;19.226;2023-04-08T11:56:29;99249.88;;;10.79;63.54
58018;BME280;43810;50.860;19.226;2023-04-08T11:58:54;99245.94;;;10.94;62.42
58018;BME280;43810;50.860;19.226;2023-04-08T12:01:21;99250.78;;;10.83;62.35
58018;BME280;43810;50.860;19.226;2023-04-08T12:03:54;99240.78;;;11.14;63.13
58018;BME280;43810;50.860;19.226;2023-04-08T12:06:20;99241.25;;;10.99;62.24
58018;BME280;43810;50.860;19.226;2023-04-08T12:08:46;99241.09;;;11.13;62.02
58018;BME280;43810;50.860;19.226;2023-04-08T12:11:13;99252.81;;;11.12;61.15
58018;BME280;43810;50.860;19.226;2023-04-08T12:13:41;99244.06;;;11.03;62.88
58018;BME280;43810;50.860;19.226;2023-04-08T12:16:07;99241.25;;;10.91;61.50
58018;BME280;43810;50.860;19.226;2023-04-08T12:18:33;99241.25;;;10.99;61.48
58018;BME280;43810;50.860;19.226;2023-04-08T12:20:59;99227.66;;;10.84;61.86
58018;BME280;43810;50.860;19.226;2023-04-08T12:23:25;99239.84;;;10.93;62.50
58018;BME280;43810;50.860;19.226;2023-04-08T12:25:52;99238.75;;;11.20;61.95
58018;BME280;43810;50.860;19.226;2023-04-08T12:28:17;99229.34;;;11.05;60.61
58018;BME280;43810;50.860;19.226;2023-04-08T12:30:43;99235.63;;;11.01;62.60
58018;BME280;43810;50.860;19.226;2023-04-08T12:33:09;99245.63;;;11.21;62.26
58018;BME280;43810;50.860;19.226;2023-04-08T12:35:35;99237.81;;;10.99;61.17
58018;BME280;43810;50.860;19.226;2023-04-08T12:38:01;99242.81;;;10.74;61.45
58018;BME280;43810;50.860;19.226;2023-04-08T12:40:27;99232.34;;;10.87;63.06
58018;BME280;43810;50.860;19.226;2023-04-08T12:42:53;99237.19;;;11.02;62.58
58018;BME280;43810;50.860;19.226;2023-04-08T12:45:19;99238.13;;;10.89;61.25
58018;BME280;43810;50.860;19.226;2023-04-08T12:47:45;99232.50;;;10.90;62.53
58018;BME280;43810;50.860;19.226;2023-04-08T12:50:11;99230.63;;;10.73;62.49
58018;BME280;43810;50.860;19.226;2023-04-08T12:52:36;99236.41;;;10.67;63.56
58018;BME280;43810;50.860;19.226;2023-04-08T12:55:03;99232.50;;;10.73;63.99
58018;BME280;43810;50.860;19.226;2023-04-08T12:57:29;99232.63;;;10.94;63.99
58018;BME280;43810;50.860;19.226;2023-04-08T12:59:56;99231.38;;;11.08;61.53
58018;BME280;43810;50.860;19.226;2023-04-08T13:02:22;99230.75;;;10.94;63.19
58018;BME280;43810;50.860;19.226;2023-04-08T13:04:50;99232.97;;;11.01;62.32
58018;BME280;43810;50.860;19.226;2023-04-08T13:07:17;99229.53;;;10.83;62.50
58018;BME280;43810;50.860;19.226;2023-04-08T13:09:44;99227.94;;;10.99;63.30
58018;BME280;43810;50.860;19.226;2023-04-08T13:12:10;99222.63;;;10.99;62.52
58018;BME280;43810;50.860;19.226;2023-04-08T13:14:37;99230.13;;;11.32;61.25
58018;BME280;43810;50.860;19.226;2023-04-08T13:17:03;99210.84;;;11.43;60.42
58018;BME280;43810;50.860;19.226;2023-04-08T13:19:29;99218.78;;;11.61;60.44
58018;BME280;43810;50.860;19.226;2023-04-08T13:21:57;99224.22;;;11.73;59.92